Time;durP1;ratioP1;P1;durP2;ratioP2;P2;SDS_P1;SDS_P2;PMS_P1;PMS_P2;Temp;Humidity;BMP_temperature;BMP_pressure;BME280_temperature;BME280_humidity;BME280_pressure;Samples;Min_cycle;Max_cycle;Signal;HPM_P1;HPM_P2
2022/07/02 00:00:46;;;;;;;2.15;1.88;;;;;;;25.11;41.26;102149.38;4909212;29;20079;-87
2022/07/02 00:03:15;;;;;;;2.13;1.73;;;;;;;25.08;41.34;102147.06;4912823;29;20044;-88
2022/07/02 00:05:51;;;;;;;1.63;1.52;;;;;;;25.10;41.21;102137.06;4883171;29;20862;-87
2022/07/02 00:08:18;;;;;;;1.40;1.30;;;;;;;25.05;41.28;102135.97;4906042;29;20586;-87
2022/07/02 00:10:46;;;;;;;1.65;1.55;;;;;;;25.06;41.45;102134.94;4912067;29;20458;-87
2022/07/02 00:13:12;;;;;;;2.50;1.90;;;;;;;25.07;41.49;102136.59;4895969;29;20115;-87
2022/07/02 00:15:38;;;;;;;2.35;1.70;;;;;;;25.12;41.25;102143.03;4908961;29;20123;-86
2022/07/02 00:18:03;;;;;;;1.52;1.42;;;;;;;25.07;41.28;102136.59;4895840;29;20055;-87
2022/07/02 00:20:30;;;;;;;2.25;1.60;;;;;;;25.07;41.44;102133.94;4876327;29;20767;-88
2022/07/02 00:22:56;;;;;;;2.17;1.88;;;;;;;25.11;41.42;102140.56;4867262;29;20528;-87
2022/07/02 00:25:23;;;;;;;2.20;1.55;;;;;;;25.04;41.24;102132.47;4892207;29;20070;-87
2022/07/02 00:27:50;;;;;;;3.13;1.98;;;;;;;25.14;41.28;102129.53;4910218;29;20044;-86
2022/07/02 00:30:16;;;;;;;2.20;1.55;;;;;;;25.14;41.47;102137.53;4909588;29;20036;-86
2022/07/02 00:32:43;;;;;;;1.58;1.48;;;;;;;25.12;41.34;102140.38;4888361;29;20808;-87
2022/07/02 00:35:11;;;;;;;1.80;1.70;;;;;;;25.04;41.47;102137.81;4902323;29;20666;-87
2022/07/02 00:37:37;;;;;;;3.17;1.65;;;;;;;25.06;41.56;102134.94;4899572;29;20055;-87
2022/07/02 00:40:05;;;;;;;2.20;1.80;;;;;;;25.11;41.48;102133.38;4895388;29;20032;-87
2022/07/02 00:42:31;;;;;;;1.60;1.50;;;;;;;25.12;41.46;102132.38;4874610;29;20044;-87
2022/07/02 00:44:57;;;;;;;1.83;1.70;;;;;;;25.04;41.29;102134.31;4908764;29;20130;-87
2022/07/02 00:47:25;;;;;;;1.80;1.70;;;;;;;25.07;41.65;102133.94;4914240;29;20036;-87
2022/07/02 00:49:51;;;;;;;1.80;1.67;;;;;;;25.00;41.63;102121.34;4890898;29;20131;-87
2022/07/02 00:52:16;;;;;;;2.60;1.70;;;;;;;25.00;41.52;102128.53;4906843;29;20176;-87
2022/07/02 00:54:42;;;;;;;2.08;1.70;;;;;;;25.05;41.73;102138.63;4882166;29;20072;-87
2022/07/02 00:57:08;;;;;;;1.60;1.50;;;;;;;25.07;41.50;102136.59;4892711;29;20060;-87
2022/07/02 00:59:35;;;;;;;1.77;1.67;;;;;;;25.04;41.83;102137.81;4910690;29;20040;-88
2022/07/02 01:02:01;;;;;;;2.17;1.83;;;;;;;24.94;41.63;102124.69;4909554;29;20094;-88
2022/07/02 01:04:31;;;;;;;1.98;1.55;;;;;;;25.00;41.62;102136.53;4908592;29;20040;-87
2022/07/02 01:07:03;;;;;;;1.83;1.67;;;;;;;25.06;41.68;102138.44;4911636;29;20458;-88
2022/07/02 01:12:22;;;;;;;2.35;1.70;;;;;;;25.02;41.56;102131.00;4891058;29;20478;-87
2022/07/02 01:14:48;;;;;;;1.98;1.77;;;;;;;25.02;41.81;102139.81;4906323;29;20104;-87
2022/07/02 01:17:14;;;;;;;1.70;1.60;;;;;;;24.93;41.80;102125.72;4905353;29;20032;-87
2022/07/02 01:19:39;;;;;;;1.77;1.67;;;;;;;25.07;41.74;102132.09;4879486;29;20749;-87
2022/07/02 01:22:26;;;;;;;1.85;1.60;;;;;;;24.99;41.73;102133.03;4909332;29;20036;-86
2022/07/02 01:24:54;;;;;;;2.13;1.95;;;;;;;24.99;41.86;102129.50;4908773;29;20676;-87
2022/07/02 01:27:21;;;;;;;1.85;1.65;;;;;;;24.94;41.85;102121.22;4897221;29;20044;-87
2022/07/02 01:29:47;;;;;;;3.10;1.88;;;;;;;24.98;41.85;102127.84;4902377;29;20051;-86
2022/07/02 01:32:13;;;;;;;2.78;1.90;;;;;;;24.98;42.00;102117.19;4889181;29;20044;-86
2022/07/02 01:34:39;;;;;;;1.95;1.73;;;;;;;25.06;41.71;102132.28;4910524;29;20066;-86
2022/07/02 01:37:10;;;;;;;2.10;1.60;;;;;;;24.98;41.76;102136.66;4881151;29;20044;-86
2022/07/02 01:39:40;;;;;;;1.92;1.80;;;;;;;24.99;41.92;102129.50;4910204;29;20051;-86
2022/07/02 01:42:06;;;;;;;1.73;1.63;;;;;;;25.00;41.78;102129.34;4907688;29;20048;-86
2022/07/02 01:44:33;;;;;;;1.52;1.42;;;;;;;24.97;41.83;102124.34;4883830;29;20306;-86
2022/07/02 01:47:01;;;;;;;2.50;1.75;;;;;;;24.93;42.03;102111.56;4896391;29;20044;-86
2022/07/02 01:49:26;;;;;;;1.90;1.80;;;;;;;24.98;42.04;102115.34;4892538;29;20107;-86
2022/07/02 01:51:52;;;;;;;3.33;2.08;;;;;;;24.93;41.89;102109.72;4908191;29;20503;-87
2022/07/02 01:54:17;;;;;;;2.35;1.98;;;;;;;24.96;41.80;102112.03;4902930;29;20082;-86
2022/07/02 01:56:43;;;;;;;1.73;1.60;;;;;;;24.98;41.89;102117.19;4909871;29;20104;-86
2022/07/02 01:59:08;;;;;;;1.90;1.80;;;;;;;24.99;41.92;102114.38;4893552;29;20050;-86
2022/07/02 02:01:34;;;;;;;1.90;1.80;;;;;;;24.96;42.08;102113.88;4886200;29;20036;-87
2022/07/02 02:03:59;;;;;;;2.13;1.67;;;;;;;24.99;41.91;102117.03;4886479;29;20048;-87
2022/07/02 02:06:26;;;;;;;2.55;1.70;;;;;;;24.96;42.02;102111.22;4873463;29;20044;-87
2022/07/02 02:08:52;;;;;;;2.00;1.80;;;;;;;24.93;42.03;102111.56;4879401;29;20080;-87
2022/07/02 02:11:17;;;;;;;2.67;2.05;;;;;;;24.99;41.89;102118.84;4890386;29;20035;-87
2022/07/02 02:13:43;;;;;;;1.55;1.45;;;;;;;24.95;41.93;102106.88;4909172;29;20083;-87
2022/07/02 02:16:08;;;;;;;1.70;1.60;;;;;;;24.94;42.02;102115.88;4877399;29;20058;-87
2022/07/02 02:18:34;;;;;;;2.13;1.60;;;;;;;25.01;41.84;102119.53;4889239;29;20028;-87
2022/07/02 02:20:59;;;;;;;1.33;1.23;;;;;;;24.99;41.97;102124.19;4891141;29;20048;-87
2022/07/02 02:23:25;;;;;;;2.50;1.88;;;;;;;24.89;42.01;102103.13;4905515;29;20429;-86
2022/07/02 02:25:50;;;;;;;3.05;1.60;;;;;;;24.99;41.91;102122.38;4908241;29;20486;-87
2022/07/02 02:28:16;;;;;;;2.25;1.90;;;;;;;24.97;42.12;102120.88;4893492;29;20051;-87
2022/07/02 02:30:41;;;;;;;2.85;1.77;;;;;;;24.92;42.02;102123.22;4873286;29;20071;-87
2022/07/02 02:33:07;;;;;;;1.77;1.67;;;;;;;24.87;42.06;102105.13;4912022;29;20402;-87
2022/07/02 02:35:32;;;;;;;2.20;2.00;;;;;;;24.88;42.21;102108.63;4855898;29;20783;-86
2022/07/02 02:37:58;;;;;;;1.75;1.65;;;;;;;24.95;41.96;102113.03;4884554;29;20064;-87
2022/07/02 02:40:23;;;;;;;2.88;1.80;;;;;;;24.93;42.10;102108.91;4897789;29;20044;-87
2022/07/02 02:42:49;;;;;;;1.60;1.50;;;;;;;25.01;41.95;102114.19;4911175;29;20072;-86
2022/07/02 02:45:15;;;;;;;2.33;1.98;;;;;;;24.93;42.01;102108.91;4911241;29;20058;-86
2022/07/02 02:47:40;;;;;;;1.90;1.80;;;;;;;24.94;42.09;102107.88;4908854;29;20040;-87
2022/07/02 02:50:06;;;;;;;2.42;2.00;;;;;;;24.93;42.14;102104.41;4914191;29;20036;-87
2022/07/02 02:52:32;;;;;;;2.47;1.73;;;;;;;24.96;41.96;102108.56;4872122;29;20147;-87
2022/07/02 02:54:57;;;;;;;1.80;1.70;;;;;;;24.97;41.89;102112.88;4894446;29;20590;-86
2022/07/02 02:57:23;;;;;;;2.30;1.60;;;;;;;24.85;41.99;102101.81;4891429;29;20058;-86
2022/07/02 02:59:48;;;;;;;1.75;1.65;;;;;;;24.87;42.07;102110.47;4876167;29;20032;-87
2022/07/02 03:02:14;;;;;;;1.85;1.75;;;;;;;24.91;42.01;102113.59;4871208;29;20060;-87
2022/07/02 03:04:39;;;;;;;1.67;1.58;;;;;;;24.92;42.35;102123.22;4892713;29;20056;-87
2022/07/02 03:07:05;;;;;;;2.53;1.77;;;;;;;24.92;42.04;102121.41;4876727;29;20041;-87
2022/07/02 03:09:31;;;;;;;1.92;1.75;;;;;;;24.92;42.08;102123.22;4856663;29;20044;-87
2022/07/02 03:11:56;;;;;;;2.60;1.77;;;;;;;24.94;42.14;102124.69;4887882;29;20035;-87
2022/07/02 03:14:22;;;;;;;2.10;1.88;;;;;;;24.94;42.01;102115.88;4903988;29;20048;-87
2022/07/02 03:16:47;;;;;;;2.22;1.83;;;;;;;24.89;42.04;102118.28;4890337;29;20646;-87
2022/07/02 03:19:13;;;;;;;1.92;1.73;;;;;;;24.92;42.17;102126.72;4870056;29;20060;-87
2022/07/02 03:21:38;;;;;;;1.90;1.80;;;;;;;24.89;42.11;102129.75;4906621;29;20139;-87
2022/07/02 03:24:04;;;;;;;1.83;1.73;;;;;;;24.86;42.39;102121.31;4882412;29;20047;-87
2022/07/02 03:26:30;;;;;;;2.20;1.60;;;;;;;24.70;42.20;102095.66;4876546;29;20621;-87
2022/07/02 03:28:55;;;;;;;3.53;1.70;;;;;;;24.84;42.21;102131.31;4894286;29;20047;-87
2022/07/02 03:31:21;;;;;;;2.00;1.80;;;;;;;24.92;42.21;102131.22;4871048;29;20044;-87
2022/07/02 03:33:46;;;;;;;1.92;1.70;;;;;;;24.93;42.21;102136.38;4907391;29;20051;-86
2022/07/02 03:36:12;;;;;;;2.03;1.80;;;;;;;24.80;42.17;102122.03;4913300;29;20201;-87
2022/07/02 03:38:38;;;;;;;1.92;1.83;;;;;;;24.90;42.19;102131.41;4904152;29;20037;-87
2022/07/02 03:41:06;;;;;;;2.15;1.73;;;;;;;24.90;42.23;102144.72;4895058;29;20130;-87
2022/07/02 03:43:32;;;;;;;2.05;1.83;;;;;;;24.90;42.25;102133.25;4860809;29;20075;-87
2022/07/02 03:45:58;;;;;;;2.35;1.70;;;;;;;24.88;42.23;102137.94;4901655;29;20044;-86
2022/07/02 03:48:24;;;;;;;2.22;1.80;;;;;;;24.88;42.20;102137.94;4890704;29;20063;-86
2022/07/02 03:50:50;;;;;;;2.00;1.80;;;;;;;24.88;42.14;102130.75;4907567;29;20088;-86
2022/07/02 03:53:15;;;;;;;3.75;1.80;;;;;;;24.84;42.34;102134.81;4912861;29;20044;-86
2022/07/02 03:55:41;;;;;;;1.65;1.55;;;;;;;24.81;42.28;102121.84;4892591;29;20059;-85
2022/07/02 03:58:07;;;;;;;2.40;1.80;;;;;;;24.79;42.23;102115.06;4870955;29;20044;-86
2022/07/02 04:00:32;;;;;;;1.70;1.60;;;;;;;24.92;42.03;102132.06;4889354;29;20458;-86
2022/07/02 04:02:58;;;;;;;2.00;1.80;;;;;;;24.84;42.16;102141.97;4904043;29;20051;-86
2022/07/02 04:05:23;;;;;;;1.88;1.70;;;;;;;24.83;42.48;102145.66;4893498;29;20048;-86
2022/07/02 04:07:49;;;;;;;1.80;1.70;;;;;;;24.80;42.23;102140.69;4891042;29;20047;-86
2022/07/02 04:10:15;;;;;;;1.83;1.70;;;;;;;24.88;42.28;102151.25;4890506;29;20153;-86
2022/07/02 04:12:40;;;;;;;1.98;1.63;;;;;;;24.82;42.30;102152.81;4891539;29;20044;-86
2022/07/02 04:15:06;;;;;;;1.85;1.67;;;;;;;24.83;42.35;102159.81;4890662;29;20051;-85
2022/07/02 04:17:32;;;;;;;1.73;1.63;;;;;;;24.80;42.33;102162.84;4907911;29;20032;-86
2022/07/02 04:19:57;;;;;;;2.55;1.80;;;;;;;24.78;42.55;102159.53;4877873;29;20043;-86
2022/07/02 04:22:23;;;;;;;3.08;1.90;;;;;;;24.82;42.37;102158.16;4909302;29;20036;-85
2022/07/02 04:24:48;;;;;;;1.70;1.60;;;;;;;24.88;42.52;102152.09;4908965;29;20044;-86
2022/07/02 04:27:14;;;;;;;1.90;1.80;;;;;;;24.85;42.42;102159.63;4910999;29;20051;-86
2022/07/02 04:29:41;;;;;;;1.90;1.80;;;;;;;24.75;42.56;102135.88;4886657;29;20044;-86
2022/07/02 04:32:07;;;;;;;2.03;1.73;;;;;;;24.86;42.01;102145.28;4906589;29;20039;-86
2022/07/02 04:34:32;;;;;;;2.15;1.65;;;;;;;24.85;42.53;102144.47;4892939;29;20044;-86
2022/07/02 04:36:58;;;;;;;2.35;2.15;;;;;;;24.85;42.25;102140.97;4897736;29;20059;-86
2022/07/02 04:39:23;;;;;;;2.10;1.90;;;;;;;24.68;41.91;102125.13;4908705;29;20051;-86
2022/07/02 04:41:49;;;;;;;1.98;1.85;;;;;;;24.80;42.30;102136.19;4891856;29;20048;-87
2022/07/02 04:44:15;;;;;;;1.90;1.80;;;;;;;24.77;42.68;102131.19;4898181;29;20121;-87
2022/07/02 04:46:40;;;;;;;3.05;2.00;;;;;;;24.83;42.33;102143.00;4889878;29;20060;-87
2022/07/02 04:49:06;;;;;;;2.10;1.63;;;;;;;24.82;42.51;102138.66;4909212;29;20044;-87
2022/07/02 04:51:31;;;;;;;2.15;1.88;;;;;;;24.79;42.58;102152.34;4880953;29;20074;-85
2022/07/02 04:53:57;;;;;;;2.88;1.90;;;;;;;24.81;42.61;102145.00;4910806;29;20048;-85
2022/07/02 04:56:24;;;;;;;2.17;1.67;;;;;;;24.85;42.47;102151.63;4892810;29;20595;-85
2022/07/02 04:58:50;;;;;;;3.25;1.90;;;;;;;24.79;42.34;102144.38;4907158;29;20067;-84
2022/07/02 05:01:16;;;;;;;1.80;1.70;;;;;;;24.78;42.52;102156.88;4889703;29;20060;-85
2022/07/02 05:03:41;;;;;;;2.13;1.73;;;;;;;24.70;42.41;102141.75;4886707;29;20093;-86
2022/07/02 05:06:07;;;;;;;2.22;2.03;;;;;;;24.79;42.58;102158.50;4895639;29;20120;-86
2022/07/02 05:08:33;;;;;;;2.08;1.80;;;;;;;24.80;42.33;102160.16;4907066;29;20100;-85
2022/07/02 05:10:58;;;;;;;2.00;1.80;;;;;;;24.81;42.38;102153.00;4913090;29;20668;-86
2022/07/02 05:13:24;;;;;;;2.00;1.77;;;;;;;24.82;42.53;102154.66;4911744;29;20051;-84
2022/07/02 05:15:50;;;;;;;2.00;1.80;;;;;;;24.75;42.58;102145.72;4886891;29;20044;-85
2022/07/02 05:18:15;;;;;;;1.98;1.80;;;;;;;24.77;42.55;102152.50;4872139;29;20103;-85
2022/07/02 05:20:41;;;;;;;2.00;1.80;;;;;;;24.74;42.74;102142.22;4910558;29;20060;-85
2022/07/02 05:23:07;;;;;;;1.90;1.65;;;;;;;24.81;42.70;102153.84;4905350;29;20052;-85
2022/07/02 05:25:33;;;;;;;1.50;1.40;;;;;;;24.66;42.53;102129.81;4901965;29;20201;-84
2022/07/02 05:27:58;;;;;;;1.92;1.80;;;;;;;24.79;42.61;102160.34;4908057;29;20052;-85
2022/07/02 05:30:24;;;;;;;1.83;1.73;;;;;;;24.74;42.76;102160.88;4906982;29;20045;-85
2022/07/02 05:32:49;;;;;;;2.13;1.90;;;;;;;24.74;42.64;102160.03;4899551;29;20047;-86
2022/07/02 05:35:15;;;;;;;1.95;1.80;;;;;;;24.77;42.58;102146.34;4894367;29;20044;-85
2022/07/02 05:37:40;;;;;;;1.55;1.45;;;;;;;24.79;42.69;102150.53;4907422;29;20419;-85
2022/07/02 05:40:07;;;;;;;1.88;1.70;;;;;;;24.77;42.80;102149.03;4904754;29;20064;-85
2022/07/02 05:42:32;;;;;;;2.20;1.90;;;;;;;24.81;42.47;102161.00;4911864;29;20046;-85
2022/07/02 05:44:58;;;;;;;1.70;1.60;;;;;;;24.76;42.66;102156.19;4891057;29;20126;-85
2022/07/02 05:47:24;;;;;;;2.08;1.88;;;;;;;24.70;42.53;102155.06;4892795;29;20049;-85
2022/07/02 05:49:49;;;;;;;2.20;1.70;;;;;;;24.78;42.68;102172.84;4882539;29;20043;-85
2022/07/02 05:52:17;;;;;;;2.03;1.83;;;;;;;24.69;42.85;102161.41;4863427;29;20053;-86
2022/07/02 05:54:43;;;;;;;2.13;1.90;;;;;;;24.69;42.51;102169.41;4892987;29;20028;-85
2022/07/02 05:57:08;;;;;;;2.03;1.85;;;;;;;24.74;42.70;102176.03;4889172;29;20134;-85
2022/07/02 05:59:34;;;;;;;2.05;1.83;;;;;;;24.73;42.99;102179.69;4907968;29;20097;-85
2022/07/02 06:01:59;;;;;;;2.00;1.90;;;;;;;24.69;42.92;102174.72;4867418;29;20110;-85
2022/07/02 06:04:25;;;;;;;1.85;1.67;;;;;;;24.80;42.87;102188.66;4888691;29;20043;-85
2022/07/02 06:09:34;;;;;;;1.52;1.42;;;;;;;24.74;42.91;102194.66;4884845;29;20044;-86
2022/07/02 06:12:00;;;;;;;1.80;1.70;;;;;;;24.77;42.68;102196.97;4888344;29;20047;-85
2022/07/02 06:14:26;;;;;;;2.20;2.00;;;;;;;24.76;42.84;102196.16;4909754;29;20410;-86
2022/07/02 06:16:51;;;;;;;2.00;1.70;;;;;;;24.72;42.98;102202.84;4908957;29;20036;-85
2022/07/02 06:19:17;;;;;;;2.17;2.00;;;;;;;24.69;42.95;102192.56;4907878;29;20044;-85
2022/07/02 06:21:42;;;;;;;1.60;1.50;;;;;;;24.75;43.01;102201.66;4891029;29;20059;-85
2022/07/02 06:24:11;;;;;;;2.60;1.67;;;;;;;24.80;42.74;102200.13;4900083;29;20036;-85
2022/07/02 06:26:36;;;;;;;2.50;2.25;;;;;;;24.74;42.83;102197.34;4881370;29;20043;-85
2022/07/02 06:29:02;;;;;;;2.67;1.92;;;;;;;24.74;42.58;102194.66;4911263;29;20061;-85
2022/07/02 06:31:28;;;;;;;1.80;1.70;;;;;;;24.77;42.67;102200.47;4887581;29;20068;-85
2022/07/02 06:33:53;;;;;;;2.35;1.83;;;;;;;24.78;42.91;102194.16;4889107;29;20044;-87
2022/07/02 06:36:21;;;;;;;1.90;1.70;;;;;;;24.72;42.98;102197.53;4876796;29;20099;-87
2022/07/02 06:38:48;;;;;;;1.42;1.40;;;;;;;24.78;42.90;102202.16;4899156;29;20060;-86
2022/07/02 06:43:57;;;;;;;1.98;1.77;;;;;;;24.87;42.84;102211.72;4908730;29;20171;-85
2022/07/02 06:46:23;;;;;;;2.35;1.73;;;;;;;24.79;42.94;102214.47;4891887;29;20178;-86
2022/07/02 06:48:49;;;;;;;1.98;1.77;;;;;;;24.81;42.88;102204.44;4907677;29;20043;-86
2022/07/02 06:51:14;;;;;;;1.80;1.70;;;;;;;24.74;42.82;102208.00;4895037;29;20127;-86
2022/07/02 06:53:40;;;;;;;2.13;1.88;;;;;;;24.88;42.84;102218.69;4908148;29;20394;-85
2022/07/02 06:56:05;;;;;;;1.75;1.60;;;;;;;24.80;42.76;102200.13;4894218;29;20103;-84
2022/07/02 06:58:31;;;;;;;1.75;1.65;;;;;;;24.92;42.58;102213.81;4862134;29;20084;-85
2022/07/02 07:00:56;;;;;;;1.80;1.70;;;;;;;24.93;42.87;102213.66;4907255;29;20046;-86
2022/07/02 07:03:22;;;;;;;1.92;1.80;;;;;;;24.99;42.55;102212.97;4909685;29;20059;-86
2022/07/02 07:05:47;;;;;;;2.38;1.73;;;;;;;24.97;42.70;102206.97;4906629;29;20423;-86
2022/07/02 07:08:13;;;;;;;1.80;1.70;;;;;;;25.05;42.58;102208.75;4874427;29;20109;-86
2022/07/02 07:10:40;;;;;;;1.80;1.70;;;;;;;25.15;42.44;102217.31;4890677;29;20071;-86
2022/07/02 07:13:05;;;;;;;1.90;1.80;;;;;;;25.09;42.42;102207.38;4887377;29;20518;-85
2022/07/02 07:15:31;;;;;;;2.03;1.77;;;;;;;25.16;42.33;102229.63;4903484;29;20044;-84
2022/07/02 07:17:56;;;;;;;2.15;1.60;;;;;;;25.20;42.21;102228.25;4908113;29;20040;-86
2022/07/02 07:20:27;;;;;;;2.13;1.77;;;;;;;25.14;42.34;102222.84;4877324;29;20402;-84
2022/07/02 07:22:53;;;;;;;1.55;1.45;;;;;;;25.23;42.33;102227.91;4874586;29;20155;-84
2022/07/02 07:25:19;;;;;;;2.47;1.70;;;;;;;25.19;42.04;102228.44;4905076;29;20037;-85
2022/07/02 07:27:45;;;;;;;1.83;1.70;;;;;;;25.06;41.99;102230.91;4898276;29;20044;-86
2022/07/02 07:30:11;;;;;;;3.47;1.55;;;;;;;25.02;42.33;102230.44;4874230;29;20090;-85
2022/07/02 07:32:37;;;;;;;2.20;1.70;;;;;;;24.97;42.49;102217.63;4881754;29;20048;-86
2022/07/02 07:35:03;;;;;;;2.97;2.00;;;;;;;25.04;42.77;102235.59;4888540;29;20067;-86
2022/07/02 07:37:29;;;;;;;2.75;1.80;;;;;;;24.97;42.68;102233.63;4891313;29;20036;-86
2022/07/02 07:39:54;;;;;;;2.22;1.50;;;;;;;24.97;42.72;102224.78;4911586;29;20028;-87
2022/07/02 07:42:22;;;;;;;2.22;1.50;;;;;;;25.05;42.82;102237.25;4875171;29;20044;-85
2022/07/02 07:44:48;;;;;;;2.00;1.80;;;;;;;25.05;43.05;102231.91;4862691;29;20035;-87
2022/07/02 07:47:13;;;;;;;1.65;1.50;;;;;;;25.03;42.86;102234.75;4908826;29;20052;-85
2022/07/02 07:49:39;;;;;;;1.80;1.48;;;;;;;25.03;42.72;102232.09;4916574;29;20051;-85
2022/07/02 07:52:05;;;;;;;1.95;1.45;;;;;;;25.02;42.79;102225.09;4913662;29;20036;-84
2022/07/02 07:54:30;;;;;;;2.55;1.52;;;;;;;25.05;42.63;102231.91;4895742;29;20075;-84
2022/07/02 07:56:56;;;;;;;3.75;1.80;;;;;;;24.98;42.63;102223.78;4896304;29;20060;-84
2022/07/02 07:59:22;;;;;;;2.63;1.60;;;;;;;25.12;42.46;102235.50;4893362;29;20044;-84
2022/07/02 08:01:47;;;;;;;2.35;1.55;;;;;;;25.14;42.12;102238.84;4884436;29;20055;-84
2022/07/02 08:04:13;;;;;;;3.72;1.95;;;;;;;25.06;41.94;102228.22;4908530;29;20044;-84
2022/07/02 08:06:38;;;;;;;3.97;1.52;;;;;;;25.14;41.96;102234.34;4880320;29;20043;-84
2022/07/02 08:09:04;;;;;;;3.92;1.60;;;;;;;25.08;42.22;102219.03;4879633;29;20095;-85
2022/07/02 08:11:29;;;;;;;3.50;1.80;;;;;;;25.11;42.27;102234.66;4897972;29;20036;-84
2022/07/02 08:13:56;;;;;;;3.35;2.28;;;;;;;25.14;42.11;102234.34;4911675;29;20716;-86
2022/07/02 08:16:22;;;;;;;6.90;1.83;;;;;;;25.19;42.17;102233.78;4909356;29;20176;-83
2022/07/02 08:18:47;;;;;;;1.92;1.50;;;;;;;25.15;41.95;102238.66;4914351;29;20032;-83
2022/07/02 08:21:13;;;;;;;2.80;1.75;;;;;;;25.16;41.44;102237.63;4889929;29;20075;-84
2022/07/02 08:23:39;;;;;;;3.83;1.50;;;;;;;25.18;41.22;102234.78;4860290;29;20044;-83
2022/07/02 08:26:04;;;;;;;2.25;1.52;;;;;;;25.17;41.63;102236.63;4910340;29;20043;-83
2022/07/02 08:28:30;;;;;;;2.80;1.90;;;;;;;25.19;41.15;102239.13;4894001;29;20040;-83
2022/07/02 08:30:55;;;;;;;4.53;1.63;;;;;;;25.16;40.89;102240.31;4895250;29;20066;-83
2022/07/02 08:33:21;;;;;;;3.75;1.60;;;;;;;25.13;40.95;102224.66;4894590;29;20044;-82
2022/07/02 08:35:46;;;;;;;3.38;1.63;;;;;;;25.18;40.61;102234.78;4893067;29;20032;-83
2022/07/02 08:38:12;;;;;;;3.13;2.00;;;;;;;25.21;40.63;102229.09;4905129;29;20020;-82
2022/07/02 08:40:41;;;;;;;3.00;1.65;;;;;;;25.17;40.55;102225.97;4902935;29;20036;-80
2022/07/02 08:43:08;;;;;;;3.10;1.30;;;;;;;25.41;39.12;102235.53;4865551;29;20040;-85
2022/07/02 08:45:34;;;;;;;2.75;1.20;;;;;;;25.30;38.28;102219.97;4906453;29;20084;-82
2022/07/02 08:48:01;;;;;;;6.45;1.70;;;;;;;25.39;37.64;102226.06;4908112;29;20027;-88
2022/07/02 08:50:27;;;;;;;1.40;1.02;;;;;;;25.51;36.82;102220.09;4907778;29;20130;-87
2022/07/02 08:52:53;;;;;;;1.90;1.23;;;;;;;25.45;36.98;102222.66;4911213;29;20482;-88
2022/07/02 08:55:20;;;;;;;2.78;1.33;;;;;;;25.58;36.96;102230.84;4863253;29;20036;-88
2022/07/02 08:57:47;;;;;;;3.35;1.27;;;;;;;25.66;35.90;102224.59;4867953;29;20169;-86
2022/07/02 09:00:14;;;;;;;1.25;1.02;;;;;;;25.64;35.69;102234.63;4903398;29;20119;-86
2022/07/02 09:02:42;;;;;;;2.35;1.05;;;;;;;25.56;35.93;102219.53;4888584;29;20530;-86
2022/07/02 09:05:09;;;;;;;1.30;0.88;;;;;;;25.68;35.35;102225.28;4888727;29;20746;-84
2022/07/02 09:07:37;;;;;;;0.75;0.70;;;;;;;25.58;35.88;102218.34;4886996;29;20044;-84
2022/07/02 09:10:03;;;;;;;1.48;1.10;;;;;;;25.65;34.89;102229.09;4908428;29;20153;-84
2022/07/02 09:12:32;;;;;;;2.80;0.90;;;;;;;25.76;35.55;102225.19;4868729;29;20060;-81
2022/07/02 09:14:58;;;;;;;3.75;1.02;;;;;;;25.69;35.65;102213.59;4906612;29;20032;-86
2022/07/02 09:17:24;;;;;;;2.13;1.13;;;;;;;25.71;34.67;102220.41;4902754;29;20048;-85
2022/07/02 09:19:49;;;;;;;2.05;1.13;;;;;;;25.71;34.47;102219.56;4893487;29;20048;-87
2022/07/02 09:22:15;;;;;;;1.45;1.02;;;;;;;25.74;34.08;102213.88;4887356;29;20050;-86
2022/07/02 09:24:42;;;;;;;1.73;1.00;;;;;;;25.80;35.07;102210.44;4906503;29;20040;-83
2022/07/02 09:27:13;;;;;;;2.90;1.08;;;;;;;25.86;35.18;102212.38;4889156;29;20242;-86
2022/07/02 09:29:50;;;;;;;1.42;1.27;;;;;;;25.94;35.38;102214.94;4866946;29;20040;-83
2022/07/02 09:32:17;;;;;;;3.42;0.90;;;;;;;26.02;35.71;102224.66;4903113;29;20039;-88
2022/07/02 09:34:44;;;;;;;2.72;1.10;;;;;;;25.98;35.58;102226.88;4904057;29;20040;-84
2022/07/02 09:37:17;;;;;;;1.02;0.82;;;;;;;25.89;36.01;102210.16;4908235;29;20764;-92
2022/07/02 09:39:44;;;;;;;1.45;0.80;;;;;;;25.96;36.16;102204.06;4872964;29;20056;-88
2022/07/02 09:42:30;;;;;;;2.55;0.98;;;;;;;25.95;35.94;102207.75;4908362;29;20155;-90
2022/07/02 09:44:57;;;;;;;1.13;0.63;;;;;;;25.79;36.31;102198.94;4858346;29;20059;-84
2022/07/02 09:47:35;;;;;;;0.85;0.85;;;;;;;25.76;36.67;102209.16;4889469;29;20040;-84
2022/07/02 09:50:06;;;;;;;0.85;0.63;;;;;;;25.75;36.84;102210.19;4912213;29;20628;-84
2022/07/02 09:52:31;;;;;;;1.75;0.80;;;;;;;25.62;37.10;102197.47;4907342;29;20689;-84
2022/07/02 09:54:57;;;;;;;0.88;0.75;;;;;;;25.71;36.86;102215.06;4909574;29;20043;-82
2022/07/02 09:57:23;;;;;;;2.53;1.00;;;;;;;25.66;37.46;102206.75;4904291;29;20054;-84
2022/07/02 09:59:48;;;;;;;3.22;1.23;;;;;;;25.70;37.55;102223.25;4877851;29;20062;-84
2022/07/02 10:02:24;;;;;;;1.58;0.82;;;;;;;25.72;37.25;102215.91;4875466;29;20050;-85
2022/07/02 10:04:55;;;;;;;0.95;0.85;;;;;;;25.71;37.21;102215.06;4902386;29;20134;-84
2022/07/02 10:07:23;;;;;;;0.95;0.77;;;;;;;25.70;37.28;102212.59;4891122;29;20033;-84
2022/07/02 10:09:49;;;;;;;2.38;1.17;;;;;;;25.58;37.67;102189.00;4890728;29;20040;-84
2022/07/02 10:12:15;;;;;;;2.78;0.93;;;;;;;25.70;37.21;102210.75;4904789;29;20525;-84
2022/07/02 10:14:43;;;;;;;2.22;0.90;;;;;;;25.64;37.55;102199.94;4869139;29;20128;-85
2022/07/02 10:17:10;;;;;;;1.60;0.80;;;;;;;25.67;37.74;102200.38;4907595;29;20059;-84
2022/07/02 10:19:38;;;;;;;0.93;0.88;;;;;;;25.58;37.46;102183.66;4881163;29;20052;-84
2022/07/02 10:22:05;;;;;;;1.00;0.80;;;;;;;25.70;37.49;102209.91;4906855;29;20072;-84
2022/07/02 10:24:31;;;;;;;1.23;0.70;;;;;;;25.69;37.47;102206.44;4904468;29;20134;-84
2022/07/02 10:26:59;;;;;;;1.67;0.95;;;;;;;25.68;37.77;102202.09;4907213;29;20048;-84
2022/07/02 10:29:26;;;;;;;1.63;0.82;;;;;;;25.67;38.09;102188.88;4879959;29;20055;-84
2022/07/02 10:32:19;;;;;;;1.58;0.85;;;;;;;25.67;37.81;102211.06;4889805;29;20043;-85
2022/07/02 10:34:51;;;;;;;2.00;1.02;;;;;;;25.65;38.28;102191.75;4856889;29;20079;-84
2022/07/02 10:37:16;;;;;;;1.27;0.75;;;;;;;25.67;37.90;102189.72;4891436;29;20079;-84
2022/07/02 10:39:43;;;;;;;2.50;1.13;;;;;;;25.68;38.07;102201.28;4907219;29;20040;-83
2022/07/02 10:42:09;;;;;;;0.85;0.80;;;;;;;25.67;38.25;102195.06;4911656;29;20130;-84
2022/07/02 10:44:39;;;;;;;0.80;0.70;;;;;;;25.64;37.65;102203.44;4865522;29;20635;-84
2022/07/02 10:47:15;;;;;;;2.58;0.88;;;;;;;25.66;38.21;102198.75;4906108;29;20040;-84
2022/07/02 10:49:41;;;;;;;0.98;0.80;;;;;;;25.67;37.77;102211.06;4899201;29;20047;-84
2022/07/02 10:52:06;;;;;;;1.13;0.77;;;;;;;25.64;37.93;102203.44;4880032;29;20044;-84
2022/07/02 10:54:33;;;;;;;1.40;0.80;;;;;;;25.65;37.78;102202.41;4905703;29;20040;-83
2022/07/02 10:56:59;;;;;;;0.60;0.60;;;;;;;25.64;38.27;102189.25;4906601;29;20143;-84
2022/07/02 10:59:34;;;;;;;1.15;0.82;;;;;;;25.66;38.40;102200.56;4892452;29;20059;-84
2022/07/02 11:02:05;;;;;;;1.23;1.10;;;;;;;25.66;38.19;102188.06;4905494;29;20044;-85
2022/07/02 11:04:31;;;;;;;1.58;0.73;;;;;;;25.66;38.33;102201.41;4905906;29;21027;-85
2022/07/02 11:07:08;;;;;;;0.90;0.80;;;;;;;25.55;38.55;102184.03;4892146;29;20044;-84
2022/07/02 11:09:48;;;;;;;1.15;0.88;;;;;;;25.66;38.49;102188.06;4898763;29;20036;-84
2022/07/02 11:12:17;;;;;;;;;;;;;;;25.68;38.56;102190.59;4905529;29;20063;-84
2022/07/02 11:14:53;;;;;;;2.70;1.33;;;;;;;25.58;38.39;102172.19;4891345;29;19919;-84
2022/07/02 11:17:19;;;;;;;0.60;0.60;;;;;;;25.65;38.22;102188.25;4904393;29;20475;-85
2022/07/02 11:19:51;;;;;;;0.65;0.60;;;;;;;25.68;37.86;102185.28;4887926;29;20048;-84
2022/07/02 11:22:16;;;;;;;2.60;0.82;;;;;;;25.67;38.12;102187.06;4906402;29;20032;-85
2022/07/02 11:24:43;;;;;;;2.83;1.02;;;;;;;25.70;38.21;102181.41;4869874;29;20052;-85
2022/07/02 11:27:09;;;;;;;1.38;0.90;;;;;;;25.72;37.41;102176.69;4888087;29;20042;-85
2022/07/02 11:29:34;;;;;;;1.65;0.88;;;;;;;25.76;36.97;102174.47;4892131;29;20044;-85